createdAt,value
2022-11-30T00:02:05.092Z,124.75
2022-11-30T00:07:07.410Z,100.82
2022-11-30T00:12:09.468Z,69.15
2022-11-30T00:17:11.545Z,80.38
2022-11-30T00:22:13.600Z,71.65
2022-11-30T00:27:15.833Z,72.80
2022-11-30T00:32:18.672Z,61.65
2022-11-30T00:37:21.879Z,61.30
2022-11-30T00:42:23.976Z,64.65
2022-11-30T00:47:26.012Z,57.67
2022-11-30T00:52:30.619Z,64.97
2022-11-30T00:57:33.321Z,56.80
2022-11-30T01:02:35.786Z,50.72
2022-11-30T01:07:38.349Z,113.20
2022-11-30T01:12:40.464Z,80.53
2022-11-30T01:17:42.540Z,52.63
2022-11-30T01:22:44.842Z,52.25
2022-11-30T01:27:49.843Z,50.55
2022-11-30T01:32:52.108Z,45.85
2022-11-30T01:37:54.460Z,45.75
2022-11-30T01:42:56.788Z,39.15
2022-11-30T01:47:58.917Z,39.35
2022-11-30T01:53:04.235Z,35.38
2022-11-30T01:58:15.330Z,42.15
2022-11-30T02:08:25.502Z,37.80
2022-11-30T02:13:58.935Z,53.97
2022-11-30T02:19:38.852Z,42.03
2022-11-30T02:25:02.644Z,43.60
2022-11-30T02:30:16.066Z,32.13
2022-11-30T02:35:22.346Z,30.40
2022-11-30T02:40:24.938Z,28.83
2022-11-30T02:45:36.373Z,28.05
2022-11-30T02:50:45.685Z,27.33
2022-11-30T02:55:47.994Z,26.67
2022-11-30T03:00:50.685Z,27.88
2022-11-30T03:05:52.939Z,28.60
2022-11-30T03:10:55.022Z,24.88
2022-11-30T03:15:57.159Z,19.48
2022-11-30T03:20:59.230Z,18.85
2022-11-30T03:26:02.433Z,18.42
2022-11-30T03:31:05.212Z,16.77
2022-11-30T03:36:10.232Z,15.50
2022-11-30T03:41:16.510Z,8.70
2022-11-30T03:46:18.912Z,9.95
2022-11-30T03:51:21.249Z,12.02
2022-11-30T03:56:23.383Z,8.65
2022-11-30T04:01:26.202Z,7.55
2022-11-30T04:06:28.679Z,5.70
2022-11-30T04:11:30.740Z,7.57
2022-11-30T04:16:33.223Z,5.93
2022-11-30T04:21:35.544Z,10.63
2022-11-30T04:26:37.677Z,13.80
2022-11-30T04:31:39.805Z,28.80
2022-11-30T04:36:42.310Z,8.70
2022-11-30T04:41:44.575Z,10.10
2022-11-30T04:46:46.879Z,16.67
2022-11-30T04:51:49.052Z,14.45
2022-11-30T04:56:51.110Z,15.88
2022-11-30T05:01:54.571Z,15.43
2022-11-30T05:06:56.827Z,13.23
2022-11-30T05:11:59.405Z,17.95
2022-11-30T05:17:01.411Z,21.20
2022-11-30T05:22:03.719Z,22.88
2022-11-30T05:27:12.190Z,18.35
2022-11-30T05:32:16.594Z,20.92
2022-11-30T05:37:20.437Z,19.38
2022-11-30T05:42:22.630Z,18.35
2022-11-30T05:47:24.786Z,21.73
2022-11-30T05:52:27.057Z,24.40
2022-11-30T05:57:29.345Z,20.55
2022-11-30T06:02:31.636Z,30.42
2022-11-30T06:07:33.862Z,29.25
2022-11-30T06:12:36.109Z,28.83
2022-11-30T06:17:38.452Z,26.60
2022-11-30T06:22:40.576Z,33.60
2022-11-30T06:27:43.792Z,29.70
2022-11-30T06:32:47.402Z,25.60
2022-11-30T06:37:50.131Z,30.80
2022-11-30T06:42:52.268Z,30.95
2022-11-30T06:47:58.227Z,31.25
2022-11-30T06:53:00.388Z,27.98
2022-11-30T06:58:09.903Z,31.10
2022-11-30T07:03:12.857Z,35.63
2022-11-30T07:08:16.984Z,37.03
2022-11-30T07:13:19.573Z,30.00
2022-11-30T07:18:23.088Z,32.47
2022-11-30T07:23:52.319Z,26.27
2022-11-30T07:29:01.089Z,26.70
2022-11-30T07:34:07.115Z,34.90
2022-11-30T07:39:09.430Z,29.80
2022-11-30T07:44:13.150Z,32.63
2022-11-30T07:49:15.573Z,32.17
2022-11-30T07:54:17.931Z,29.38
2022-11-30T07:59:20.026Z,29.27
2022-11-30T08:04:22.336Z,32.13
2022-11-30T08:09:26.848Z,33.97
2022-11-30T08:14:29.120Z,38.70
2022-11-30T08:19:31.401Z,44.28
2022-11-30T08:24:33.603Z,61.78
2022-11-30T08:29:35.649Z,36.88
2022-11-30T08:34:37.923Z,32.88
2022-11-30T08:39:40.208Z,33.15
2022-11-30T08:44:42.259Z,34.88
2022-11-30T08:49:44.523Z,31.17
2022-11-30T08:54:48.804Z,35.13
2022-11-30T08:59:51.279Z,35.35
2022-11-30T09:04:53.962Z,34.00
2022-11-30T09:09:56.255Z,33.95
2022-11-30T09:15:00.863Z,35.33
2022-11-30T09:20:03.702Z,46.13
2022-11-30T09:25:06.236Z,42.60
2022-11-30T09:30:09.368Z,48.20
2022-11-30T09:35:13.132Z,45.47
2022-11-30T09:40:17.018Z,49.40
2022-11-30T09:45:19.365Z,47.70
2022-11-30T09:50:25.095Z,44.20
2022-11-30T09:55:41.788Z,48.05
2022-11-30T10:00:44.090Z,43.58
2022-11-30T10:05:52.439Z,38.65
2022-11-30T10:11:16.030Z,59.60
2022-11-30T10:16:49.919Z,43.05
2022-11-30T10:22:09.501Z,39.13
2022-11-30T10:27:18.219Z,40.63
2022-11-30T10:32:24.273Z,39.58
2022-11-30T10:37:39.815Z,74.65
2022-11-30T10:43:29.907Z,42.00
2022-11-30T10:48:43.677Z,47.58
2022-11-30T10:53:45.978Z,37.85
2022-11-30T10:58:55.724Z,36.25
2022-11-30T11:04:13.139Z,39.05
2022-11-30T11:09:30.494Z,35.92
2022-11-30T11:14:37.887Z,33.97
2022-11-30T11:19:42.813Z,34.80
2022-11-30T11:24:46.015Z,124.75
2022-11-30T11:30:03.220Z,45.50
2022-11-30T11:35:46.632Z,29.85
2022-11-30T11:40:58.947Z,62.40
2022-11-30T11:46:11.994Z,53.15
2022-11-30T11:51:14.309Z,159.45
2022-11-30T11:56:33.049Z,18.13
2022-11-30T12:01:54.146Z,9.32
2022-11-30T12:06:59.582Z,6.50
2022-11-30T12:12:02.217Z,5.82
2022-11-30T12:17:25.673Z,4.93
2022-11-30T12:23:22.009Z,3.47
2022-11-30T12:28:48.221Z,3.58
2022-11-30T12:34:28.883Z,3.15
2022-11-30T12:39:53.921Z,3.47
2022-11-30T12:44:59.099Z,3.20
2022-11-30T12:50:22.374Z,2.80
2022-11-30T12:55:27.360Z,2.83
2022-11-30T13:00:48.255Z,3.72
2022-11-30T13:06:00.382Z,2.88
2022-11-30T13:11:13.779Z,2.85
2022-11-30T13:16:16.475Z,3.65
2022-11-30T13:21:39.271Z,3.90
2022-11-30T13:26:50.620Z,4.15
2022-11-30T13:37:09.718Z,4.28
2022-11-30T13:42:30.241Z,3.20
2022-11-30T13:47:36.828Z,2.77
2022-11-30T13:52:57.945Z,3.15
2022-11-30T13:58:01.431Z,3.17
2022-11-30T14:08:39.081Z,2.40
2022-11-30T14:13:42.287Z,3.05
2022-11-30T14:18:47.484Z,3.10
2022-11-30T14:23:57.930Z,3.33
2022-11-30T14:29:09.135Z,5.20
2022-11-30T14:39:44.092Z,4.22
2022-11-30T14:44:47.834Z,6.70
2022-11-30T14:49:52.749Z,5.65
2022-11-30T14:55:28.174Z,4.05
2022-11-30T15:00:36.698Z,3.92
2022-11-30T15:05:39.872Z,4.15
2022-11-30T15:10:43.445Z,3.20
2022-11-30T15:15:53.966Z,3.80
2022-11-30T15:21:00.601Z,4.05
2022-11-30T15:26:12.055Z,3.95
2022-11-30T15:31:45.352Z,4.30
2022-11-30T15:36:48.118Z,4.60
2022-11-30T15:42:01.842Z,5.05
2022-11-30T15:47:07.305Z,4.63
2022-11-30T15:52:12.449Z,4.20
2022-11-30T15:57:16.188Z,4.50
2022-11-30T16:02:32.117Z,5.57
2022-11-30T16:07:37.545Z,12.25
2022-11-30T16:12:40.175Z,42.75
2022-11-30T16:17:42.482Z,49.85
2022-11-30T16:22:46.664Z,38.17
2022-11-30T16:27:50.003Z,33.97
2022-11-30T16:32:53.100Z,23.10
2022-11-30T16:37:55.473Z,23.77
2022-11-30T16:42:57.697Z,18.05
2022-11-30T16:47:59.919Z,15.65
2022-11-30T16:53:02.847Z,16.65
2022-11-30T16:58:05.936Z,22.13
2022-11-30T17:03:18.896Z,15.88
2022-11-30T17:08:21.082Z,13.18
2022-11-30T17:13:23.500Z,17.90
2022-11-30T17:18:25.646Z,16.58
2022-11-30T17:23:27.825Z,20.50
2022-11-30T17:28:30.031Z,21.95
2022-11-30T17:33:34.151Z,20.23
2022-11-30T17:38:38.576Z,23.50
2022-11-30T17:43:41.268Z,24.58
2022-11-30T17:48:44.412Z,27.45
2022-11-30T17:53:46.557Z,28.83
2022-11-30T17:58:49.543Z,26.38
2022-11-30T18:03:52.715Z,19.17
2022-11-30T18:08:54.995Z,22.25
2022-11-30T18:14:03.359Z,32.22
2022-11-30T18:19:12.757Z,30.58
2022-11-30T18:24:15.232Z,28.35
2022-11-30T18:29:17.572Z,29.10
2022-11-30T18:34:20.070Z,22.13
2022-11-30T18:39:22.278Z,19.23
2022-11-30T18:44:24.588Z,23.92
2022-11-30T18:49:26.730Z,25.10
2022-11-30T18:54:31.956Z,22.15
2022-11-30T18:59:34.110Z,18.70
2022-11-30T19:04:36.255Z,22.52
2022-11-30T19:09:38.790Z,26.60
2022-11-30T19:14:43.145Z,31.13
2022-11-30T19:19:45.330Z,28.65
2022-11-30T19:24:47.693Z,23.35
2022-11-30T19:29:50.140Z,20.98
2022-11-30T19:34:52.913Z,16.33
2022-11-30T19:39:55.031Z,17.88
2022-11-30T19:44:57.088Z,15.57
2022-11-30T19:49:59.346Z,30.20
2022-11-30T19:55:02.791Z,51.55
2022-11-30T20:00:06.979Z,75.78
2022-11-30T20:05:15.631Z,31.30
2022-11-30T20:10:18.018Z,32.60
2022-11-30T20:15:20.161Z,35.10
2022-11-30T20:20:22.327Z,27.10
2022-11-30T20:25:24.614Z,23.83
2022-11-30T20:30:27.281Z,28.25
2022-11-30T20:35:29.675Z,28.90
2022-11-30T20:40:31.985Z,33.70
2022-11-30T20:45:34.065Z,21.55
2022-11-30T20:50:36.415Z,22.85
2022-11-30T20:55:38.881Z,20.00
2022-11-30T21:00:41.021Z,19.98
2022-11-30T21:05:43.213Z,17.13
2022-11-30T21:10:48.362Z,18.02
2022-11-30T21:15:50.604Z,20.60
2022-11-30T21:20:52.968Z,23.98
2022-11-30T21:25:55.744Z,18.17
2022-11-30T21:30:58.105Z,20.23
2022-11-30T21:36:00.536Z,16.67
2022-11-30T21:41:03.270Z,14.05
2022-11-30T21:46:12.913Z,18.48
2022-11-30T21:51:20.426Z,14.77
2022-11-30T21:56:25.954Z,13.82
2022-11-30T22:01:34.378Z,14.52
2022-11-30T22:06:38.682Z,13.23
2022-11-30T22:11:42.765Z,15.68
2022-11-30T22:16:45.500Z,16.83
2022-11-30T22:21:50.217Z,16.63
2022-11-30T22:26:52.791Z,14.40
2022-11-30T22:31:55.367Z,13.45
2022-11-30T22:36:57.665Z,9.98
2022-11-30T22:41:59.892Z,12.43
2022-11-30T22:47:02.259Z,10.48
2022-11-30T22:52:04.419Z,9.88
2022-11-30T22:57:06.507Z,9.52
2022-11-30T23:02:08.881Z,9.32
2022-11-30T23:07:11.228Z,8.55
2022-11-30T23:12:29.986Z,11.50
2022-11-30T23:17:35.797Z,10.20
2022-11-30T23:22:38.180Z,7.43
2022-11-30T23:27:40.289Z,7.28
2022-11-30T23:32:42.334Z,7.03
2022-11-30T23:37:45.023Z,6.22
2022-11-30T23:42:47.343Z,6.45
2022-11-30T23:47:49.654Z,6.07
2022-11-30T23:52:51.796Z,7.57
2022-11-30T23:57:53.937Z,8.60
